sensor_id;sensor_type;location;lat;lon;timestamp;pressure;altitude;pressure_sealevel;temperature;humidity
59110;BME280;44895;47.438;18.978;2023-07-28T00:02:50;99701.56;;;17.25;100.00
59110;BME280;44895;47.438;18.978;2023-07-28T00:05:54;99702.13;;;17.19;100.00
59110;BME280;44895;47.438;18.978;2023-07-28T00:08:58;99703.50;;;17.25;100.00
59110;BME280;44895;47.438;18.978;2023-07-28T00:12:02;99700.75;;;17.25;100.00
59110;BME280;44895;47.438;18.978;2023-07-28T00:15:06;99702.47;;;17.30;100.00
59110;BME280;44895;47.438;18.978;2023-07-28T00:18:10;99696.72;;;17.35;100.00
59110;BME280;44895;47.438;18.978;2023-07-28T00:21:13;99695.94;;;17.34;100.00
59110;BME280;44895;47.438;18.978;2023-07-28T00:24:17;99691.69;;;17.37;100.00
59110;BME280;44895;47.438;18.978;2023-07-28T00:27:21;99687.38;;;17.23;100.00
59110;BME280;44895;47.438;18.978;2023-07-28T00:30:25;99688.53;;;17.22;100.00
59110;BME280;44895;47.438;18.978;2023-07-28T00:33:30;99691.09;;;17.15;100.00
59110;BME280;44895;47.438;18.978;2023-07-28T00:36:34;99682.75;;;17.11;100.00
59110;BME280;44895;47.438;18.978;2023-07-28T00:39:38;99689.72;;;17.09;100.00
59110;BME280;44895;47.438;18.978;2023-07-28T00:42:42;99687.22;;;17.04;100.00
59110;BME280;44895;47.438;18.978;2023-07-28T00:45:45;99684.25;;;17.09;100.00
59110;BME280;44895;47.438;18.978;2023-07-28T00:48:49;99688.00;;;17.04;100.00
59110;BME280;44895;47.438;18.978;2023-07-28T00:51:53;99675.28;;;17.12;100.00
59110;BME280;44895;47.438;18.978;2023-07-28T00:54:57;99674.50;;;17.11;100.00
59110;BME280;44895;47.438;18.978;2023-07-28T00:58:01;99683.53;;;17.12;100.00
59110;BME280;44895;47.438;18.978;2023-07-28T01:01:05;99684.31;;;17.12;100.00
59110;BME280;44895;47.438;18.978;2023-07-28T01:04:08;99671.34;;;16.97;100.00
59110;BME280;44895;47.438;18.978;2023-07-28T01:10:39;99666.59;;;17.10;100.00
59110;BME280;44895;47.438;18.978;2023-07-28T01:13:43;99672.56;;;17.12;100.00
59110;BME280;44895;47.438;18.978;2023-07-28T01:16:46;99663.06;;;17.09;100.00
59110;BME280;44895;47.438;18.978;2023-07-28T01:19:52;99670.28;;;17.14;100.00
59110;BME280;44895;47.438;18.978;2023-07-28T01:23:09;99681.34;;;17.18;100.00
59110;BME280;44895;47.438;18.978;2023-07-28T01:26:24;99675.88;;;17.18;100.00
59110;BME280;44895;47.438;18.978;2023-07-28T01:29:29;99671.78;;;17.11;100.00
59110;BME280;44895;47.438;18.978;2023-07-28T01:32:32;99665.03;;;17.09;100.00
59110;BME280;44895;47.438;18.978;2023-07-28T01:35:37;99673.94;;;17.06;100.00
59110;BME280;44895;47.438;18.978;2023-07-28T01:38:41;99670.59;;;17.12;100.00
59110;BME280;44895;47.438;18.978;2023-07-28T01:41:45;99669.56;;;17.17;100.00
59110;BME280;44895;47.438;18.978;2023-07-28T01:44:50;99669.31;;;17.22;100.00
59110;BME280;44895;47.438;18.978;2023-07-28T01:47:54;99673.44;;;17.16;100.00
59110;BME280;44895;47.438;18.978;2023-07-28T01:50:57;99662.38;;;17.12;100.00
59110;BME280;44895;47.438;18.978;2023-07-28T01:54:01;99676.66;;;17.18;100.00
59110;BME280;44895;47.438;18.978;2023-07-28T01:57:05;99671.88;;;17.15;100.00
59110;BME280;44895;47.438;18.978;2023-07-28T02:00:09;99666.72;;;17.14;100.00
59110;BME280;44895;47.438;18.978;2023-07-28T02:03:19;99660.41;;;17.25;100.00
59110;BME280;44895;47.438;18.978;2023-07-28T02:06:23;99664.28;;;17.24;100.00
59110;BME280;44895;47.438;18.978;2023-07-28T02:09:27;99657.91;;;17.20;100.00
59110;BME280;44895;47.438;18.978;2023-07-28T02:12:31;99658.94;;;17.16;100.00
59110;BME280;44895;47.438;18.978;2023-07-28T02:15:35;99650.41;;;17.05;100.00
59110;BME280;44895;47.438;18.978;2023-07-28T02:18:38;99663.88;;;17.10;100.00
59110;BME280;44895;47.438;18.978;2023-07-28T02:21:42;99663.44;;;17.08;100.00
59110;BME280;44895;47.438;18.978;2023-07-28T02:24:46;99667.31;;;17.07;100.00
59110;BME280;44895;47.438;18.978;2023-07-28T02:27:49;99661.38;;;17.05;100.00
59110;BME280;44895;47.438;18.978;2023-07-28T02:30:54;99666.66;;;16.98;100.00
59110;BME280;44895;47.438;18.978;2023-07-28T02:33:58;99668.59;;;16.97;100.00
59110;BME280;44895;47.438;18.978;2023-07-28T02:37:01;99662.88;;;16.90;100.00
59110;BME280;44895;47.438;18.978;2023-07-28T02:40:06;99654.56;;;16.74;100.00
59110;BME280;44895;47.438;18.978;2023-07-28T02:43:10;99655.16;;;16.67;100.00
59110;BME280;44895;47.438;18.978;2023-07-28T02:46:14;99665.09;;;16.59;100.00
59110;BME280;44895;47.438;18.978;2023-07-28T02:49:18;99657.53;;;16.69;100.00
59110;BME280;44895;47.438;18.978;2023-07-28T02:52:22;99663.16;;;16.60;100.00
59110;BME280;44895;47.438;18.978;2023-07-28T02:55:26;99659.94;;;16.58;100.00
59110;BME280;44895;47.438;18.978;2023-07-28T02:58:30;99662.56;;;16.54;100.00
59110;BME280;44895;47.438;18.978;2023-07-28T03:01:33;99663.16;;;16.47;100.00
59110;BME280;44895;47.438;18.978;2023-07-28T03:04:37;99669.53;;;16.52;100.00
59110;BME280;44895;47.438;18.978;2023-07-28T03:07:53;99666.59;;;16.44;100.00
59110;BME280;44895;47.438;18.978;2023-07-28T03:10:57;99664.63;;;16.45;100.00
59110;BME280;44895;47.438;18.978;2023-07-28T03:14:01;99664.28;;;16.46;100.00
59110;BME280;44895;47.438;18.978;2023-07-28T03:17:06;99665.34;;;16.42;100.00
59110;BME280;44895;47.438;18.978;2023-07-28T03:20:10;99661.00;;;16.41;100.00
59110;BME280;44895;47.438;18.978;2023-07-28T03:23:14;99652.78;;;16.41;100.00
59110;BME280;44895;47.438;18.978;2023-07-28T03:26:17;99651.97;;;16.40;100.00
59110;BME280;44895;47.438;18.978;2023-07-28T03:29:21;99650.28;;;16.48;100.00
59110;BME280;44895;47.438;18.978;2023-07-28T03:32:25;99646.16;;;16.42;100.00
59110;BME280;44895;47.438;18.978;2023-07-28T03:35:29;99653.31;;;16.46;100.00
59110;BME280;44895;47.438;18.978;2023-07-28T03:38:42;99652.53;;;16.46;100.00
59110;BME280;44895;47.438;18.978;2023-07-28T03:41:46;99654.16;;;16.47;100.00
59110;BME280;44895;47.438;18.978;2023-07-28T03:44:50;99646.16;;;16.42;100.00
59110;BME280;44895;47.438;18.978;2023-07-28T03:47:54;99650.50;;;16.43;100.00
59110;BME280;44895;47.438;18.978;2023-07-28T03:50:58;99643.53;;;16.33;100.00
59110;BME280;44895;47.438;18.978;2023-07-28T03:54:02;99639.53;;;16.30;100.00
59110;BME280;44895;47.438;18.978;2023-07-28T03:57:05;99653.00;;;16.36;100.00
59110;BME280;44895;47.438;18.978;2023-07-28T04:00:09;99651.41;;;16.47;100.00
59110;BME280;44895;47.438;18.978;2023-07-28T04:03:19;99652.41;;;16.55;100.00
59110;BME280;44895;47.438;18.978;2023-07-28T04:06:46;99655.75;;;16.48;100.00
59110;BME280;44895;47.438;18.978;2023-07-28T04:09:50;99661.47;;;16.30;100.00
59110;BME280;44895;47.438;18.978;2023-07-28T04:12:54;99669.56;;;16.39;100.00
59110;BME280;44895;47.438;18.978;2023-07-28T04:15:58;99674.00;;;16.44;100.00
59110;BME280;44895;47.438;18.978;2023-07-28T04:19:02;99664.53;;;16.54;100.00
59110;BME280;44895;47.438;18.978;2023-07-28T04:22:05;99667.28;;;16.29;100.00
59110;BME280;44895;47.438;18.978;2023-07-28T04:25:11;99657.44;;;16.16;100.00
59110;BME280;44895;47.438;18.978;2023-07-28T04:28:19;99666.00;;;16.39;100.00
59110;BME280;44895;47.438;18.978;2023-07-28T04:31:23;99669.53;;;16.52;100.00
59110;BME280;44895;47.438;18.978;2023-07-28T04:34:35;99660.53;;;16.63;100.00
59110;BME280;44895;47.438;18.978;2023-07-28T04:38:02;99663.03;;;16.81;100.00
59110;BME280;44895;47.438;18.978;2023-07-28T04:41:26;99658.91;;;16.75;100.00
59110;BME280;44895;47.438;18.978;2023-07-28T04:44:30;99654.19;;;16.88;100.00
59110;BME280;44895;47.438;18.978;2023-07-28T04:47:38;99651.44;;;16.88;100.00
59110;BME280;44895;47.438;18.978;2023-07-28T04:50:45;99635.44;;;17.02;100.00
59110;BME280;44895;47.438;18.978;2023-07-28T04:54:07;99622.28;;;17.08;100.00
59110;BME280;44895;47.438;18.978;2023-07-28T04:57:11;99639.53;;;17.37;100.00
59110;BME280;44895;47.438;18.978;2023-07-28T05:00:16;99635.63;;;17.66;100.00
59110;BME280;44895;47.438;18.978;2023-07-28T05:03:20;99630.22;;;17.86;100.00
59110;BME280;44895;47.438;18.978;2023-07-28T05:06:33;99637.16;;;17.96;100.00
59110;BME280;44895;47.438;18.978;2023-07-28T05:09:37;99633.50;;;17.91;100.00
59110;BME280;44895;47.438;18.978;2023-07-28T05:12:41;99630.25;;;18.02;100.00
59110;BME280;44895;47.438;18.978;2023-07-28T05:15:45;99635.63;;;18.30;100.00
59110;BME280;44895;47.438;18.978;2023-07-28T05:18:57;99631.53;;;18.40;100.00
59110;BME280;44895;47.438;18.978;2023-07-28T05:22:26;99637.19;;;18.99;100.00
59110;BME280;44895;47.438;18.978;2023-07-28T05:25:32;99630.53;;;19.19;100.00
59110;BME280;44895;47.438;18.978;2023-07-28T05:28:36;99634.84;;;19.01;100.00
59110;BME280;44895;47.438;18.978;2023-07-28T05:31:40;99631.63;;;18.79;100.00
59110;BME280;44895;47.438;18.978;2023-07-28T05:34:53;99643.78;;;18.78;100.00
59110;BME280;44895;47.438;18.978;2023-07-28T05:37:57;99638.47;;;18.69;100.00
59110;BME280;44895;47.438;18.978;2023-07-28T05:41:03;99638.19;;;18.74;100.00
59110;BME280;44895;47.438;18.978;2023-07-28T05:44:07;99635.25;;;18.83;100.00
59110;BME280;44895;47.438;18.978;2023-07-28T05:47:11;99638.16;;;18.71;100.00
59110;BME280;44895;47.438;18.978;2023-07-28T05:50:14;99654.41;;;18.80;100.00
59110;BME280;44895;47.438;18.978;2023-07-28T05:53:18;99657.75;;;19.25;100.00
59110;BME280;44895;47.438;18.978;2023-07-28T05:56:22;99662.53;;;19.47;100.00
59110;BME280;44895;47.438;18.978;2023-07-28T05:59:26;99655.88;;;23.30;100.00
59110;BME280;44895;47.438;18.978;2023-07-28T06:02:30;99658.78;;;24.49;69.81
59110;BME280;44895;47.438;18.978;2023-07-28T06:05:34;99663.38;;;21.28;100.00
59110;BME280;44895;47.438;18.978;2023-07-28T06:08:38;99666.81;;;21.18;100.00
59110;BME280;44895;47.438;18.978;2023-07-28T06:11:41;99672.69;;;21.16;100.00
59110;BME280;44895;47.438;18.978;2023-07-28T06:14:46;99670.09;;;20.70;100.00
59110;BME280;44895;47.438;18.978;2023-07-28T06:17:50;99669.38;;;21.04;100.00
59110;BME280;44895;47.438;18.978;2023-07-28T06:20:54;99666.06;;;21.96;100.00
59110;BME280;44895;47.438;18.978;2023-07-28T06:23:58;99657.66;;;21.48;100.00
59110;BME280;44895;47.438;18.978;2023-07-28T06:27:02;99663.47;;;21.73;100.00
59110;BME280;44895;47.438;18.978;2023-07-28T06:30:12;99656.22;;;21.58;100.00
59110;BME280;44895;47.438;18.978;2023-07-28T06:33:15;99657.00;;;21.24;100.00
59110;BME280;44895;47.438;18.978;2023-07-28T06:36:19;99664.59;;;22.10;100.00
59110;BME280;44895;47.438;18.978;2023-07-28T06:39:23;99674.56;;;22.22;100.00
59110;BME280;44895;47.438;18.978;2023-07-28T06:42:28;99659.41;;;22.50;100.00
59110;BME280;44895;47.438;18.978;2023-07-28T06:45:34;99653.22;;;25.67;79.19
59110;BME280;44895;47.438;18.978;2023-07-28T06:48:38;99658.91;;;23.00;80.17
59110;BME280;44895;47.438;18.978;2023-07-28T06:51:42;99651.75;;;22.32;93.24
59110;BME280;44895;47.438;18.978;2023-07-28T06:54:48;99651.56;;;21.65;100.00
59110;BME280;44895;47.438;18.978;2023-07-28T06:57:52;99652.44;;;21.73;100.00
59110;BME280;44895;47.438;18.978;2023-07-28T07:00:56;99642.16;;;22.19;100.00
59110;BME280;44895;47.438;18.978;2023-07-28T07:04:01;99633.19;;;21.84;95.57
59110;BME280;44895;47.438;18.978;2023-07-28T07:07:05;99632.94;;;22.56;85.91
59110;BME280;44895;47.438;18.978;2023-07-28T07:10:08;99635.66;;;23.19;82.18
59110;BME280;44895;47.438;18.978;2023-07-28T07:13:12;99629.72;;;23.20;78.28
59110;BME280;44895;47.438;18.978;2023-07-28T07:16:17;99628.22;;;24.74;67.17
59110;BME280;44895;47.438;18.978;2023-07-28T07:19:20;99622.56;;;25.07;65.69
59110;BME280;44895;47.438;18.978;2023-07-28T07:22:24;99624.59;;;24.92;63.04
59110;BME280;44895;47.438;18.978;2023-07-28T07:25:28;99621.13;;;23.72;70.02
59110;BME280;44895;47.438;18.978;2023-07-28T07:28:32;99626.22;;;24.75;66.14
59110;BME280;44895;47.438;18.978;2023-07-28T07:31:38;99628.22;;;24.74;65.50
59110;BME280;44895;47.438;18.978;2023-07-28T07:34:41;99620.78;;;25.46;62.82
59110;BME280;44895;47.438;18.978;2023-07-28T07:37:45;99623.84;;;24.77;64.15
59110;BME280;44895;47.438;18.978;2023-07-28T07:40:49;99604.88;;;24.47;63.88
59110;BME280;44895;47.438;18.978;2023-07-28T07:43:54;99604.47;;;24.45;64.74
59110;BME280;44895;47.438;18.978;2023-07-28T07:47:00;99599.34;;;23.89;67.86
59110;BME280;44895;47.438;18.978;2023-07-28T07:50:05;99604.88;;;23.67;67.84
59110;BME280;44895;47.438;18.978;2023-07-28T07:53:08;99599.72;;;23.44;71.38
59110;BME280;44895;47.438;18.978;2023-07-28T07:56:12;99604.91;;;23.74;69.29
59110;BME280;44895;47.438;18.978;2023-07-28T07:59:16;99600.19;;;23.93;68.22
59110;BME280;44895;47.438;18.978;2023-07-28T08:02:19;99604.91;;;24.14;69.37
59110;BME280;44895;47.438;18.978;2023-07-28T08:05:24;99597.41;;;24.00;67.19
59110;BME280;44895;47.438;18.978;2023-07-28T08:08:28;99595.78;;;23.77;69.16
59110;BME280;44895;47.438;18.978;2023-07-28T08:11:33;99608.50;;;24.15;67.56
59110;BME280;44895;47.438;18.978;2023-07-28T08:14:37;99602.13;;;24.32;68.10
59110;BME280;44895;47.438;18.978;2023-07-28T08:17:41;99598.13;;;24.51;65.99
59110;BME280;44895;47.438;18.978;2023-07-28T08:20:45;99586.91;;;24.91;65.00
59110;BME280;44895;47.438;18.978;2023-07-28T08:23:48;99593.31;;;24.81;61.96
59110;BME280;44895;47.438;18.978;2023-07-28T08:26:52;99594.56;;;25.47;61.24
59110;BME280;44895;47.438;18.978;2023-07-28T08:29:55;99596.84;;;24.81;61.20
59110;BME280;44895;47.438;18.978;2023-07-28T08:32:59;99602.06;;;24.68;61.77
59110;BME280;44895;47.438;18.978;2023-07-28T08:36:04;99605.34;;;25.30;61.40
59110;BME280;44895;47.438;18.978;2023-07-28T08:39:07;99595.13;;;25.16;59.49
59110;BME280;44895;47.438;18.978;2023-07-28T08:42:12;99596.28;;;25.19;59.97
59110;BME280;44895;47.438;18.978;2023-07-28T08:45:17;99590.78;;;25.08;60.57
59110;BME280;44895;47.438;18.978;2023-07-28T08:48:22;99582.97;;;24.81;61.40
59110;BME280;44895;47.438;18.978;2023-07-28T08:51:25;99583.03;;;24.70;61.32
59110;BME280;44895;47.438;18.978;2023-07-28T08:54:29;99571.91;;;24.74;63.68
59110;BME280;44895;47.438;18.978;2023-07-28T08:57:33;99571.09;;;24.84;62.16
59110;BME280;44895;47.438;18.978;2023-07-28T09:00:37;99568.78;;;24.57;62.10
59110;BME280;44895;47.438;18.978;2023-07-28T09:03:41;99566.59;;;25.08;62.62
59110;BME280;44895;47.438;18.978;2023-07-28T09:06:46;99557.94;;;24.92;63.00
59110;BME280;44895;47.438;18.978;2023-07-28T09:09:59;99554.34;;;24.99;63.56
59110;BME280;44895;47.438;18.978;2023-07-28T09:13:03;99548.31;;;25.15;64.64
59110;BME280;44895;47.438;18.978;2023-07-28T09:16:20;99555.81;;;25.18;65.02
59110;BME280;44895;47.438;18.978;2023-07-28T09:19:25;99558.59;;;25.14;64.17
59110;BME280;44895;47.438;18.978;2023-07-28T09:22:29;99556.13;;;25.31;65.68
59110;BME280;44895;47.438;18.978;2023-07-28T09:25:34;99563.78;;;25.16;66.13
59110;BME280;44895;47.438;18.978;2023-07-28T09:28:39;99553.44;;;25.20;66.24
59110;BME280;44895;47.438;18.978;2023-07-28T09:31:48;99548.84;;;25.55;66.10
59110;BME280;44895;47.438;18.978;2023-07-28T09:35:11;99552.50;;;25.45;65.06
59110;BME280;44895;47.438;18.978;2023-07-28T09:38:16;99552.84;;;25.54;65.03
59110;BME280;44895;47.438;18.978;2023-07-28T09:41:22;99550.38;;;25.63;66.32
59110;BME280;44895;47.438;18.978;2023-07-28T09:44:26;99556.72;;;26.13;65.00
59110;BME280;44895;47.438;18.978;2023-07-28T09:47:30;99556.06;;;25.94;63.94
59110;BME280;44895;47.438;18.978;2023-07-28T09:50:37;99549.25;;;25.99;64.41
59110;BME280;44895;47.438;18.978;2023-07-28T09:53:46;99541.97;;;25.74;65.56
59110;BME280;44895;47.438;18.978;2023-07-28T09:56:54;99543.16;;;25.73;65.10
59110;BME280;44895;47.438;18.978;2023-07-28T10:00:00;99540.97;;;25.92;62.13
59110;BME280;44895;47.438;18.978;2023-07-28T10:03:16;99530.91;;;26.12;64.33
59110;BME280;44895;47.438;18.978;2023-07-28T10:06:21;99537.84;;;26.31;64.39
59110;BME280;44895;47.438;18.978;2023-07-28T10:09:29;99540.75;;;26.17;64.03
59110;BME280;44895;47.438;18.978;2023-07-28T10:12:42;99525.72;;;26.11;63.58
59110;BME280;44895;47.438;18.978;2023-07-28T10:15:50;99530.03;;;26.53;63.39
59110;BME280;44895;47.438;18.978;2023-07-28T10:18:54;99531.59;;;26.54;62.96
59110;BME280;44895;47.438;18.978;2023-07-28T10:22:08;99533.00;;;26.74;63.87
59110;BME280;44895;47.438;18.978;2023-07-28T10:25:22;99537.75;;;26.77;61.79
59110;BME280;44895;47.438;18.978;2023-07-28T10:28:31;99529.09;;;26.98;62.07
59110;BME280;44895;47.438;18.978;2023-07-28T10:31:49;99525.53;;;26.94;62.21
59110;BME280;44895;47.438;18.978;2023-07-28T10:35:00;99532.69;;;26.64;62.34
59110;BME280;44895;47.438;18.978;2023-07-28T10:38:29;99539.38;;;26.70;62.46
59110;BME280;44895;47.438;18.978;2023-07-28T10:41:37;99535.19;;;26.90;63.41
59110;BME280;44895;47.438;18.978;2023-07-28T10:44:40;99543.88;;;26.92;63.07
59110;BME280;44895;47.438;18.978;2023-07-28T10:47:44;99544.66;;;26.96;62.77
59110;BME280;44895;47.438;18.978;2023-07-28T10:50:49;99542.66;;;26.62;63.60
59110;BME280;44895;47.438;18.978;2023-07-28T10:53:57;99529.50;;;27.24;64.25
59110;BME280;44895;47.438;18.978;2023-07-28T10:57:03;99537.66;;;27.11;61.45
59110;BME280;44895;47.438;18.978;2023-07-28T11:00:07;99536.75;;;27.18;61.84
59110;BME280;44895;47.438;18.978;2023-07-28T11:03:12;99521.56;;;26.95;62.11
59110;BME280;44895;47.438;18.978;2023-07-28T11:06:17;99527.72;;;27.10;63.13
59110;BME280;44895;47.438;18.978;2023-07-28T11:09:23;99524.09;;;27.13;61.24
59110;BME280;44895;47.438;18.978;2023-07-28T11:12:29;99516.53;;;27.41;61.51
59110;BME280;44895;47.438;18.978;2023-07-28T11:15:33;99517.72;;;27.88;61.53
59110;BME280;44895;47.438;18.978;2023-07-28T11:18:37;99518.66;;;27.81;60.26
59110;BME280;44895;47.438;18.978;2023-07-28T11:21:41;99522.19;;;28.09;59.31
59110;BME280;44895;47.438;18.978;2023-07-28T11:24:50;99516.81;;;27.94;59.60
59110;BME280;44895;47.438;18.978;2023-07-28T11:27:54;99517.25;;;28.17;60.87
59110;BME280;44895;47.438;18.978;2023-07-28T11:31:01;99514.38;;;28.20;59.50
59110;BME280;44895;47.438;18.978;2023-07-28T11:34:16;99522.19;;;28.29;58.53
59110;BME280;44895;47.438;18.978;2023-07-28T11:37:20;99516.66;;;28.05;57.82
59110;BME280;44895;47.438;18.978;2023-07-28T11:40:24;99510.38;;;28.21;57.20
59110;BME280;44895;47.438;18.978;2023-07-28T11:43:29;99502.56;;;28.12;57.42
59110;BME280;44895;47.438;18.978;2023-07-28T11:49:46;99504.88;;;28.38;55.94
59110;BME280;44895;47.438;18.978;2023-07-28T11:52:51;99499.88;;;28.29;56.21
59110;BME280;44895;47.438;18.978;2023-07-28T11:55:54;99506.44;;;28.39;55.35
59110;BME280;44895;47.438;18.978;2023-07-28T11:58:58;99496.34;;;28.45;55.14
59110;BME280;44895;47.438;18.978;2023-07-28T12:02:03;99498.84;;;28.59;53.10
59110;BME280;44895;47.438;18.978;2023-07-28T12:05:12;99489.09;;;28.47;53.16
59110;BME280;44895;47.438;18.978;2023-07-28T12:08:36;99489.41;;;28.53;52.91
59110;BME280;44895;47.438;18.978;2023-07-28T12:11:43;99477.72;;;28.58;55.25
59110;BME280;44895;47.438;18.978;2023-07-28T12:14:48;99479.44;;;28.52;55.55
59110;BME280;44895;47.438;18.978;2023-07-28T12:21:07;99465.00;;;28.17;57.31
59110;BME280;44895;47.438;18.978;2023-07-28T12:24:11;99469.50;;;28.31;56.31
59110;BME280;44895;47.438;18.978;2023-07-28T12:27:15;99467.63;;;28.44;54.70
59110;BME280;44895;47.438;18.978;2023-07-28T12:30:19;99456.84;;;28.26;57.45
59110;BME280;44895;47.438;18.978;2023-07-28T12:33:23;99448.56;;;28.23;58.27
59110;BME280;44895;47.438;18.978;2023-07-28T12:36:28;99463.59;;;28.66;57.99
59110;BME280;44895;47.438;18.978;2023-07-28T12:39:36;99455.38;;;28.78;53.07
59110;BME280;44895;47.438;18.978;2023-07-28T12:42:42;99454.44;;;28.65;51.73
59110;BME280;44895;47.438;18.978;2023-07-28T12:45:46;99451.63;;;28.65;51.76
59110;BME280;44895;47.438;18.978;2023-07-28T12:48:50;99457.97;;;28.49;50.83
59110;BME280;44895;47.438;18.978;2023-07-28T12:51:53;99468.22;;;28.36;52.12
59110;BME280;44895;47.438;18.978;2023-07-28T12:54:57;99459.78;;;28.19;51.88
59110;BME280;44895;47.438;18.978;2023-07-28T12:58:00;99462.94;;;28.41;52.82
59110;BME280;44895;47.438;18.978;2023-07-28T13:01:04;99467.13;;;28.50;53.87
59110;BME280;44895;47.438;18.978;2023-07-28T13:04:08;99467.63;;;28.64;54.40
59110;BME280;44895;47.438;18.978;2023-07-28T13:07:12;99455.22;;;28.66;53.09
59110;BME280;44895;47.438;18.978;2023-07-28T13:10:16;99460.06;;;28.82;54.02
59110;BME280;44895;47.438;18.978;2023-07-28T13:13:19;99452.44;;;28.66;53.95
59110;BME280;44895;47.438;18.978;2023-07-28T13:16:23;99461.66;;;28.83;52.43
59110;BME280;44895;47.438;18.978;2023-07-28T13:19:27;99461.91;;;28.52;54.09
59110;BME280;44895;47.438;18.978;2023-07-28T13:22:31;99461.50;;;28.13;55.46
59110;BME280;44895;47.438;18.978;2023-07-28T13:25:35;99464.56;;;28.39;57.12
59110;BME280;44895;47.438;18.978;2023-07-28T13:28:39;99462.16;;;28.77;56.34
59110;BME280;44895;47.438;18.978;2023-07-28T13:31:46;99459.59;;;28.67;56.50
59110;BME280;44895;47.438;18.978;2023-07-28T13:34:50;99468.28;;;28.32;55.78
59110;BME280;44895;47.438;18.978;2023-07-28T13:37:54;99467.56;;;28.08;57.31
59110;BME280;44895;47.438;18.978;2023-07-28T13:40:57;99469.03;;;27.92;58.41
59110;BME280;44895;47.438;18.978;2023-07-28T13:44:01;99474.28;;;27.66;60.03
59110;BME280;44895;47.438;18.978;2023-07-28T13:47:06;99472.63;;;27.69;61.62
59110;BME280;44895;47.438;18.978;2023-07-28T13:50:09;99476.19;;;27.49;61.68
59110;BME280;44895;47.438;18.978;2023-07-28T13:53:13;99473.47;;;27.18;62.47
59110;BME280;44895;47.438;18.978;2023-07-28T13:56:17;99469.44;;;27.19;63.59
59110;BME280;44895;47.438;18.978;2023-07-28T13:59:21;99467.75;;;27.26;63.87
59110;BME280;44895;47.438;18.978;2023-07-28T14:02:24;99462.13;;;27.29;62.92
59110;BME280;44895;47.438;18.978;2023-07-28T14:05:28;99457.41;;;27.26;61.50
59110;BME280;44895;47.438;18.978;2023-07-28T14:08:32;99456.81;;;27.39;61.70
59110;BME280;44895;47.438;18.978;2023-07-28T14:11:36;99459.66;;;27.35;63.68
59110;BME280;44895;47.438;18.978;2023-07-28T14:14:40;99466.66;;;27.47;66.04
59110;BME280;44895;47.438;18.978;2023-07-28T14:17:43;99457.22;;;27.37;67.60
59110;BME280;44895;47.438;18.978;2023-07-28T14:20:47;99445.13;;;27.47;66.89
59110;BME280;44895;47.438;18.978;2023-07-28T14:23:51;99446.78;;;27.45;66.29
59110;BME280;44895;47.438;18.978;2023-07-28T14:26:55;99432.81;;;27.69;69.76
59110;BME280;44895;47.438;18.978;2023-07-28T14:29:58;99436.72;;;27.95;68.01
59110;BME280;44895;47.438;18.978;2023-07-28T14:33:02;99430.06;;;27.89;64.20
59110;BME280;44895;47.438;18.978;2023-07-28T14:36:06;99429.56;;;27.94;64.93
59110;BME280;44895;47.438;18.978;2023-07-28T14:39:10;99418.25;;;27.81;64.23
59110;BME280;44895;47.438;18.978;2023-07-28T14:42:14;99422.25;;;27.80;62.55
59110;BME280;44895;47.438;18.978;2023-07-28T14:45:18;99415.88;;;27.59;59.19
59110;BME280;44895;47.438;18.978;2023-07-28T14:48:24;99413.69;;;27.47;58.93
59110;BME280;44895;47.438;18.978;2023-07-28T14:51:28;99410.03;;;27.50;61.25
59110;BME280;44895;47.438;18.978;2023-07-28T14:54:31;99416.97;;;27.42;63.05
59110;BME280;44895;47.438;18.978;2023-07-28T14:57:35;99404.69;;;27.35;63.22
59110;BME280;44895;47.438;18.978;2023-07-28T15:00:39;99404.69;;;27.39;61.47
59110;BME280;44895;47.438;18.978;2023-07-28T15:03:43;99397.13;;;27.36;60.21
59110;BME280;44895;47.438;18.978;2023-07-28T15:06:46;99379.50;;;27.19;60.16
59110;BME280;44895;47.438;18.978;2023-07-28T15:09:50;99386.47;;;27.31;59.65
59110;BME280;44895;47.438;18.978;2023-07-28T15:12:54;99382.19;;;27.26;60.46
59110;BME280;44895;47.438;18.978;2023-07-28T15:15:58;99384.47;;;27.31;60.45
59110;BME280;44895;47.438;18.978;2023-07-28T15:19:01;99371.44;;;27.25;60.84
59110;BME280;44895;47.438;18.978;2023-07-28T15:22:05;99375.47;;;27.24;61.00
59110;BME280;44895;47.438;18.978;2023-07-28T15:25:09;99365.25;;;27.37;62.96
59110;BME280;44895;47.438;18.978;2023-07-28T15:28:15;99368.38;;;27.43;63.21
59110;BME280;44895;47.438;18.978;2023-07-28T15:31:19;99374.66;;;27.47;63.65
59110;BME280;44895;47.438;18.978;2023-07-28T15:34:23;99374.28;;;27.45;66.88
59110;BME280;44895;47.438;18.978;2023-07-28T15:37:27;99370.13;;;27.57;67.50
59110;BME280;44895;47.438;18.978;2023-07-28T15:40:32;99365.69;;;27.59;69.51
59110;BME280;44895;47.438;18.978;2023-07-28T15:43:35;99384.69;;;27.64;65.33
59110;BME280;44895;47.438;18.978;2023-07-28T15:46:39;99377.38;;;27.50;60.80
59110;BME280;44895;47.438;18.978;2023-07-28T15:49:43;99380.06;;;27.34;61.44
59110;BME280;44895;47.438;18.978;2023-07-28T15:52:47;99384.53;;;27.52;63.43
59110;BME280;44895;47.438;18.978;2023-07-28T15:55:52;99389.81;;;27.46;63.18
59110;BME280;44895;47.438;18.978;2023-07-28T15:58:56;99396.81;;;27.30;63.51
59110;BME280;44895;47.438;18.978;2023-07-28T16:01:59;99401.06;;;27.15;65.29
59110;BME280;44895;47.438;18.978;2023-07-28T16:05:03;99411.47;;;27.11;63.62
59110;BME280;44895;47.438;18.978;2023-07-28T16:08:07;99424.91;;;26.92;62.56
59110;BME280;44895;47.438;18.978;2023-07-28T16:11:11;99424.28;;;26.81;66.78
59110;BME280;44895;47.438;18.978;2023-07-28T16:14:15;99438.63;;;26.79;68.98